createdAt,value
2022-10-19T00:00:44.437Z,3.60
2022-10-19T00:03:41.683Z,4.00
2022-10-19T00:06:39.228Z,2.00
2022-10-19T00:09:36.530Z,2.00
2022-10-19T00:12:33.266Z,2.40
2022-10-19T00:15:30.340Z,0.60
2022-10-19T00:18:27.376Z,6.60
2022-10-19T00:21:24.445Z,3.20
2022-10-19T00:24:21.371Z,2.80
2022-10-19T00:27:17.926Z,3.00
2022-10-19T00:30:15.431Z,3.80
2022-10-19T00:33:12.473Z,3.00
2022-10-19T00:36:36.722Z,2.00
2022-10-19T00:39:34.103Z,4.20
2022-10-19T00:42:31.944Z,2.40
2022-10-19T00:45:29.173Z,3.00
2022-10-19T00:48:30.855Z,4.00
2022-10-19T00:51:28.553Z,4.00
2022-10-19T00:54:25.395Z,2.40
2022-10-19T00:57:22.126Z,4.80
2022-10-19T01:00:19.284Z,3.20
2022-10-19T01:03:16.010Z,8.00
2022-10-19T01:06:14.611Z,3.20
2022-10-19T01:09:11.184Z,2.80
2022-10-19T01:12:22.896Z,4.20
2022-10-19T01:15:10.458Z,6.40
2022-10-19T01:18:24.136Z,6.60
2022-10-19T01:21:42.511Z,6.00
2022-10-19T01:24:45.369Z,3.60
2022-10-19T01:28:10.355Z,4.20
2022-10-19T01:31:42.587Z,5.20
2022-10-19T01:35:01.636Z,5.00
2022-10-19T01:38:11.000Z,6.00
2022-10-19T01:41:27.333Z,6.40
2022-10-19T01:44:31.349Z,9.80
2022-10-19T01:48:02.264Z,5.00
2022-10-19T01:51:01.865Z,7.40
2022-10-19T01:54:03.045Z,6.00
2022-10-19T01:57:00.339Z,5.20
2022-10-19T01:59:57.606Z,3.60
2022-10-19T02:02:54.571Z,3.40
2022-10-19T02:05:51.105Z,6.60
2022-10-19T02:08:49.114Z,6.00
2022-10-19T02:11:53.357Z,6.40
2022-10-19T02:14:54.718Z,3.80
2022-10-19T02:17:52.866Z,5.20
2022-10-19T02:20:50.307Z,3.40
2022-10-19T02:23:49.314Z,6.40
2022-10-19T02:26:49.356Z,4.00
2022-10-19T02:29:46.455Z,4.80
2022-10-19T02:32:43.644Z,3.40
2022-10-19T02:35:40.536Z,4.80
2022-10-19T02:38:37.301Z,1.80
2022-10-19T02:42:04.975Z,6.20
2022-10-19T02:45:24.455Z,8.00
2022-10-19T02:48:23.063Z,4.60
2022-10-19T02:51:34.814Z,5.20
2022-10-19T02:54:32.363Z,3.60
2022-10-19T02:57:29.141Z,4.80
2022-10-19T03:00:26.063Z,5.80
2022-10-19T03:03:23.532Z,5.60
2022-10-19T03:06:20.341Z,4.40
2022-10-19T03:09:17.567Z,3.00
2022-10-19T03:12:14.492Z,6.40
2022-10-19T03:15:15.376Z,4.40
2022-10-19T03:18:12.243Z,4.40
2022-10-19T03:21:11.136Z,3.00
2022-10-19T03:24:08.146Z,3.80
2022-10-19T03:27:05.257Z,3.60
2022-10-19T03:30:02.329Z,3.20
2022-10-19T03:32:59.396Z,6.00
2022-10-19T03:36:35.125Z,6.00
2022-10-19T03:39:32.186Z,2.80
2022-10-19T03:42:29.352Z,4.40
2022-10-19T03:45:26.389Z,4.00
2022-10-19T03:48:23.270Z,3.00
2022-10-19T03:51:25.010Z,8.00
2022-10-19T03:54:25.034Z,8.20
2022-10-19T03:57:24.570Z,7.00
2022-10-19T04:00:21.346Z,6.40
2022-10-19T04:03:18.557Z,7.80
2022-10-19T04:06:19.777Z,6.40
2022-10-19T04:09:20.597Z,3.80
2022-10-19T04:12:17.526Z,5.20
2022-10-19T04:15:14.687Z,5.20
2022-10-19T04:18:11.507Z,6.60
2022-10-19T04:21:21.234Z,4.20
2022-10-19T04:24:18.625Z,4.80
2022-10-19T04:27:15.663Z,4.40
2022-10-19T04:30:12.549Z,7.80
2022-10-19T04:33:09.129Z,4.40
2022-10-19T04:36:08.446Z,3.60
2022-10-19T04:39:05.311Z,5.60
2022-10-19T04:42:02.503Z,7.40
2022-10-19T04:44:59.615Z,6.40
2022-10-19T04:47:56.825Z,6.00
2022-10-19T04:50:55.756Z,5.60
2022-10-19T04:53:55.595Z,4.00
2022-10-19T04:56:55.419Z,6.80
2022-10-19T04:59:52.437Z,6.80
2022-10-19T05:02:49.590Z,4.00
2022-10-19T05:05:46.445Z,4.80
2022-10-19T05:08:43.753Z,4.80
2022-10-19T05:11:40.617Z,3.00
2022-10-19T05:14:39.099Z,3.00
2022-10-19T05:17:39.600Z,5.60
2022-10-19T05:20:36.517Z,6.40
2022-10-19T05:26:35.145Z,3.20
2022-10-19T05:29:33.978Z,6.00
2022-10-19T05:32:31.666Z,4.00
2022-10-19T05:35:28.675Z,6.00
2022-10-19T05:38:25.647Z,7.20
2022-10-19T05:41:22.868Z,6.00
2022-10-19T05:44:23.864Z,3.00
2022-10-19T05:47:21.529Z,8.00
2022-10-19T05:50:18.364Z,6.80
2022-10-19T05:53:15.490Z,4.40
2022-10-19T05:56:21.129Z,7.00
2022-10-19T05:59:19.329Z,5.20
2022-10-19T06:02:16.580Z,7.40
2022-10-19T06:05:13.497Z,4.40
2022-10-19T06:08:10.506Z,7.60
2022-10-19T06:11:10.972Z,6.40
2022-10-19T06:14:13.581Z,6.80
2022-10-19T06:17:10.831Z,7.00
2022-10-19T06:20:08.101Z,7.60
2022-10-19T06:23:05.730Z,9.00
2022-10-19T06:26:15.157Z,7.40
2022-10-19T06:29:12.402Z,8.00
2022-10-19T06:32:09.844Z,4.40
2022-10-19T06:35:07.159Z,7.00
2022-10-19T06:38:04.886Z,7.20
2022-10-19T06:41:02.406Z,8.00
2022-10-19T06:43:59.421Z,6.40
2022-10-19T06:46:56.286Z,7.00
2022-10-19T06:49:53.816Z,6.00
2022-10-19T06:52:50.631Z,4.00
2022-10-19T06:55:47.366Z,6.00
2022-10-19T06:58:44.791Z,11.20
2022-10-19T07:01:41.540Z,4.80
2022-10-19T07:04:38.870Z,6.00
2022-10-19T07:07:36.160Z,7.40
2022-10-19T07:10:33.856Z,7.00
2022-10-19T07:13:30.903Z,3.00
2022-10-19T07:16:27.442Z,6.60
2022-10-19T07:19:27.586Z,6.00
2022-10-19T07:22:28.090Z,11.40
2022-10-19T07:25:26.831Z,6.00
2022-10-19T07:28:23.659Z,8.60
2022-10-19T07:31:21.866Z,8.00
2022-10-19T07:34:18.569Z,7.00
2022-10-19T07:37:15.488Z,8.40
2022-10-19T07:40:13.252Z,3.60
2022-10-19T07:43:10.700Z,7.00
2022-10-19T07:46:18.733Z,5.60
2022-10-19T07:49:16.459Z,3.80
2022-10-19T07:52:13.873Z,3.60
2022-10-19T07:55:10.546Z,3.00
2022-10-19T07:58:07.469Z,4.80
2022-10-19T08:01:06.466Z,3.00
2022-10-19T08:07:20.828Z,3.20
2022-10-19T08:10:17.907Z,7.20
2022-10-19T08:13:14.734Z,4.00
2022-10-19T08:16:29.111Z,3.00
2022-10-19T08:19:26.709Z,5.60
2022-10-19T08:22:23.960Z,2.80
2022-10-19T08:25:21.789Z,1.00
2022-10-19T08:28:18.475Z,2.00
2022-10-19T08:31:17.480Z,3.00
2022-10-19T08:34:14.631Z,3.00
2022-10-19T08:37:26.126Z,6.00
2022-10-19T08:40:29.861Z,2.00
2022-10-19T08:43:38.523Z,2.60
2022-10-19T08:46:44.687Z,3.60
2022-10-19T08:49:41.605Z,3.40
2022-10-19T08:52:38.909Z,2.40
2022-10-19T08:56:03.744Z,2.80
2022-10-19T08:59:34.073Z,2.00
2022-10-19T09:02:41.189Z,3.20
2022-10-19T09:05:50.585Z,5.60
2022-10-19T09:08:48.624Z,4.60
2022-10-19T09:11:50.523Z,7.00
2022-10-19T09:14:55.228Z,9.20
2022-10-19T09:17:52.978Z,9.40
2022-10-19T09:20:50.847Z,10.80
2022-10-19T09:24:08.226Z,8.00
2022-10-19T09:27:05.761Z,10.60
2022-10-19T09:30:04.715Z,10.60
2022-10-19T09:33:02.355Z,7.80
2022-10-19T09:36:00.070Z,12.20
2022-10-19T09:38:57.757Z,13.80
2022-10-19T09:41:56.126Z,13.80
2022-10-19T09:44:53.611Z,14.20
2022-10-19T09:47:50.773Z,16.80
2022-10-19T09:50:51.859Z,15.40
2022-10-19T09:53:55.484Z,11.20
2022-10-19T09:56:53.747Z,18.00
2022-10-19T09:59:52.350Z,15.20
2022-10-19T10:02:51.318Z,11.00
2022-10-19T10:05:48.598Z,7.00
2022-10-19T10:08:47.509Z,5.60
2022-10-19T10:11:46.292Z,2.00
2022-10-19T10:14:44.065Z,2.80
2022-10-19T10:17:40.630Z,6.40
2022-10-19T10:20:37.633Z,1.00
2022-10-19T10:23:36.414Z,4.80
2022-10-19T10:26:42.211Z,2.60
2022-10-19T10:29:39.547Z,2.40
2022-10-19T10:32:38.464Z,1.40
2022-10-19T10:35:36.021Z,1.00
2022-10-19T10:38:44.114Z,2.00
2022-10-19T10:41:41.733Z,6.00
2022-10-19T10:44:39.306Z,1.20
2022-10-19T10:47:39.107Z,1.40
2022-10-19T10:50:36.804Z,1.00
2022-10-19T10:53:40.530Z,3.60
2022-10-19T10:56:40.865Z,2.00
2022-10-19T10:59:57.482Z,2.40
2022-10-19T11:02:57.538Z,1.00
2022-10-19T11:05:57.074Z,2.00
2022-10-19T11:09:16.655Z,1.40
2022-10-19T11:12:15.081Z,2.40
2022-10-19T11:15:14.122Z,2.00
2022-10-19T11:18:13.010Z,0.60
2022-10-19T11:21:11.713Z,1.00
2022-10-19T11:24:17.836Z,2.00
2022-10-19T11:27:34.986Z,2.20
2022-10-19T11:30:42.831Z,2.80
2022-10-19T11:36:48.658Z,5.60
2022-10-19T11:40:10.691Z,1.80
2022-10-19T11:43:14.706Z,3.00
2022-10-19T11:46:23.381Z,1.00
2022-10-19T11:49:43.465Z,1.20
2022-10-19T11:52:52.973Z,2.00
2022-10-19T11:56:04.718Z,2.00
2022-10-19T11:59:22.365Z,1.00
2022-10-19T12:02:22.663Z,3.60
2022-10-19T12:05:58.822Z,0.40
2022-10-19T12:09:13.524Z,2.40
2022-10-19T12:12:34.225Z,1.00
2022-10-19T12:15:44.242Z,0.20
2022-10-19T12:18:49.055Z,0.60
2022-10-19T12:21:45.853Z,1.00
2022-10-19T12:24:43.461Z,2.00
2022-10-19T12:27:41.062Z,1.80
2022-10-19T12:30:38.543Z,1.40
2022-10-19T12:33:43.999Z,1.60
2022-10-19T12:36:52.438Z,1.80
2022-10-19T12:39:54.011Z,1.40
2022-10-19T12:43:28.037Z,1.00
2022-10-19T12:46:36.256Z,6.20
2022-10-19T12:49:33.942Z,2.60
2022-10-19T12:52:34.745Z,1.60
2022-10-19T12:55:34.932Z,3.20
2022-10-19T12:58:36.464Z,3.80
2022-10-19T13:01:33.963Z,3.60
2022-10-19T13:04:32.492Z,5.40
2022-10-19T13:07:29.927Z,4.00
2022-10-19T13:10:27.591Z,3.80
2022-10-19T13:13:53.784Z,4.60
2022-10-19T13:17:00.885Z,4.40
2022-10-19T13:20:17.881Z,2.00
2022-10-19T13:23:18.057Z,2.20
2022-10-19T13:26:30.813Z,1.80
2022-10-19T13:29:48.754Z,3.40
2022-10-19T13:32:46.033Z,3.00
2022-10-19T13:35:43.015Z,2.80
2022-10-19T13:39:06.233Z,2.00
2022-10-19T13:42:02.703Z,2.20
2022-10-19T13:45:00.149Z,4.00
2022-10-19T13:48:01.528Z,3.40
2022-10-19T13:51:01.608Z,4.00
2022-10-19T13:54:36.108Z,4.00
2022-10-19T13:57:55.326Z,1.40
2022-10-19T14:01:11.917Z,4.40
2022-10-19T14:04:26.300Z,4.00
2022-10-19T14:07:26.631Z,2.40
2022-10-19T14:10:28.286Z,1.20
2022-10-19T14:13:29.993Z,3.40
2022-10-19T14:16:27.234Z,6.00
2022-10-19T14:19:27.295Z,5.60
2022-10-19T14:22:33.891Z,8.80
2022-10-19T14:25:32.844Z,7.00
2022-10-19T14:28:30.973Z,7.40
2022-10-19T14:31:33.895Z,8.00
2022-10-19T14:34:34.300Z,4.80
2022-10-19T14:37:31.821Z,6.80
2022-10-19T14:40:34.451Z,2.80
2022-10-19T14:43:32.840Z,3.00
2022-10-19T14:46:34.509Z,4.00
2022-10-19T14:49:32.003Z,3.00
2022-10-19T14:52:34.671Z,3.20
2022-10-19T14:55:34.366Z,1.60
2022-10-19T14:58:37.058Z,2.20
2022-10-19T15:01:34.084Z,2.80
2022-10-19T15:04:34.450Z,3.00
2022-10-19T15:07:39.412Z,2.40
2022-10-19T15:10:45.800Z,1.60
2022-10-19T15:13:43.016Z,2.00
2022-10-19T15:16:39.898Z,3.60
2022-10-19T15:19:36.889Z,5.60
2022-10-19T15:22:34.265Z,4.80
2022-10-19T15:25:37.099Z,6.60
2022-10-19T15:28:40.760Z,2.00
2022-10-19T15:31:38.969Z,7.20
2022-10-19T15:34:35.898Z,2.20
2022-10-19T15:37:33.103Z,7.60
2022-10-19T15:40:37.882Z,10.20
2022-10-19T15:43:39.269Z,10.60
2022-10-19T15:46:46.013Z,2.00
2022-10-19T15:49:42.842Z,6.80
2022-10-19T15:52:40.163Z,8.20
2022-10-19T15:55:37.126Z,6.40
2022-10-19T15:58:35.929Z,12.00
2022-10-19T16:01:39.111Z,20.60
2022-10-19T16:04:38.974Z,7.80
2022-10-19T16:07:37.553Z,8.20
2022-10-19T16:10:34.906Z,9.00
2022-10-19T16:13:32.370Z,6.80
2022-10-19T16:16:33.222Z,26.00
2022-10-19T16:19:30.579Z,18.20
2022-10-19T16:22:28.086Z,25.00
2022-10-19T16:25:25.178Z,32.40
2022-10-19T16:28:23.677Z,42.20
2022-10-19T16:31:21.041Z,12.80
2022-10-19T16:34:18.025Z,21.00
2022-10-19T16:37:14.943Z,31.60
2022-10-19T16:40:11.951Z,22.80
2022-10-19T16:43:09.025Z,25.00
2022-10-19T16:46:06.235Z,35.00
2022-10-19T16:49:03.165Z,23.60
2022-10-19T16:52:01.629Z,62.00
2022-10-19T16:54:59.729Z,15.00
2022-10-19T16:57:57.195Z,20.80
2022-10-19T17:00:56.236Z,24.00
2022-10-19T17:03:53.307Z,13.40
2022-10-19T17:06:50.128Z,15.20
2022-10-19T17:09:49.794Z,15.80
2022-10-19T17:12:49.813Z,17.20
2022-10-19T17:15:47.360Z,16.80
2022-10-19T17:18:44.087Z,16.40
2022-10-19T17:21:42.500Z,12.60
2022-10-19T17:24:40.178Z,23.20
2022-10-19T17:27:36.951Z,15.40
2022-10-19T17:30:34.011Z,18.00
2022-10-19T17:33:31.101Z,19.20
2022-10-19T17:36:29.908Z,14.60
2022-10-19T17:39:29.079Z,15.60
2022-10-19T17:42:27.023Z,15.40
2022-10-19T17:45:24.017Z,9.80
2022-10-19T17:48:21.078Z,13.40
2022-10-19T17:51:27.244Z,12.20
2022-10-19T17:54:24.081Z,11.40
2022-10-19T17:57:20.940Z,9.40
2022-10-19T18:00:18.001Z,9.40
2022-10-19T18:03:14.775Z,8.00
2022-10-19T18:06:20.830Z,8.60
2022-10-19T18:09:18.108Z,11.80
2022-10-19T18:12:15.165Z,10.60
2022-10-19T18:15:12.236Z,7.40
2022-10-19T18:18:09.069Z,13.60
2022-10-19T18:21:07.104Z,12.60
2022-10-19T18:24:04.237Z,12.40
2022-10-19T18:27:01.023Z,13.40
2022-10-19T18:29:57.957Z,11.00
2022-10-19T18:32:54.732Z,10.60
2022-10-19T18:35:52.650Z,11.60
2022-10-19T18:38:53.627Z,21.60
2022-10-19T18:41:54.594Z,19.20
2022-10-19T18:44:52.056Z,10.80
2022-10-19T18:47:48.858Z,11.60
2022-10-19T18:50:46.518Z,16.40
2022-10-19T18:53:44.419Z,13.00
2022-10-19T18:56:41.133Z,13.80
2022-10-19T18:59:38.271Z,15.40
2022-10-19T19:02:45.772Z,16.00
2022-10-19T19:05:44.024Z,15.40
2022-10-19T19:08:41.205Z,21.60
2022-10-19T19:11:39.283Z,16.00
2022-10-19T19:14:35.940Z,22.80
2022-10-19T19:17:33.561Z,29.80
2022-10-19T19:20:31.455Z,26.80
2022-10-19T19:23:28.377Z,25.60
2022-10-19T19:26:26.583Z,16.20
2022-10-19T19:29:24.707Z,19.60
2022-10-19T19:32:22.644Z,16.20
2022-10-19T19:35:21.515Z,19.00
2022-10-19T19:38:19.225Z,39.60
2022-10-19T19:41:16.634Z,13.80
2022-10-19T19:44:14.420Z,21.00
2022-10-19T19:47:11.332Z,19.00
2022-10-19T19:50:09.061Z,20.40
2022-10-19T19:53:06.100Z,15.60
2022-10-19T19:56:04.049Z,16.40
2022-10-19T19:59:03.770Z,13.80
2022-10-19T20:02:01.872Z,9.20
2022-10-19T20:04:59.566Z,16.80
2022-10-19T20:07:57.397Z,12.80
2022-10-19T20:10:53.993Z,13.40
2022-10-19T20:13:51.406Z,9.60
2022-10-19T20:16:48.330Z,10.40
2022-10-19T20:19:45.130Z,6.60
2022-10-19T20:22:46.194Z,11.80
2022-10-19T20:25:43.385Z,13.40
2022-10-19T20:28:40.346Z,9.80
2022-10-19T20:31:40.544Z,11.40
2022-10-19T20:34:38.457Z,20.00
2022-10-19T20:37:36.275Z,13.40
2022-10-19T20:40:33.576Z,14.40
2022-10-19T20:43:31.395Z,11.80
2022-10-19T20:46:29.337Z,14.60
2022-10-19T20:49:26.299Z,11.60
2022-10-19T20:52:23.371Z,13.20
2022-10-19T20:55:22.093Z,9.20
2022-10-19T20:58:19.183Z,13.00
2022-10-19T21:01:19.506Z,7.80
2022-10-19T21:04:16.187Z,13.60
2022-10-19T21:07:13.621Z,9.40
2022-10-19T21:10:11.486Z,11.60
2022-10-19T21:13:08.626Z,7.20
2022-10-19T21:16:17.793Z,9.80
2022-10-19T21:19:17.033Z,13.40
2022-10-19T21:22:14.067Z,12.20
2022-10-19T21:25:10.990Z,11.00
2022-10-19T21:28:08.502Z,10.60
2022-10-19T21:31:08.734Z,7.20
2022-10-19T21:34:07.251Z,6.80
2022-10-19T21:37:04.291Z,9.60
2022-10-19T21:40:01.531Z,8.40
2022-10-19T21:42:58.654Z,10.40
2022-10-19T21:45:56.318Z,11.20
2022-10-19T21:48:54.041Z,9.60
2022-10-19T21:51:54.528Z,10.60
2022-10-19T21:54:51.612Z,10.60
2022-10-19T21:57:49.104Z,9.60
2022-10-19T22:00:46.089Z,10.00
2022-10-19T22:03:43.527Z,10.40
2022-10-19T22:06:40.574Z,9.20
2022-10-19T22:09:38.445Z,10.00
2022-10-19T22:12:35.653Z,9.40
2022-10-19T22:15:37.428Z,9.60
2022-10-19T22:18:34.581Z,10.60
2022-10-19T22:21:31.575Z,7.20
2022-10-19T22:24:28.249Z,8.60
2022-10-19T22:27:25.062Z,8.80
2022-10-19T22:30:22.474Z,10.60
2022-10-19T22:33:19.328Z,4.40
2022-10-19T22:36:16.474Z,8.20
2022-10-19T22:39:13.709Z,6.20
2022-10-19T22:42:11.366Z,7.40
2022-10-19T22:45:08.546Z,8.20
2022-10-19T22:48:05.394Z,8.80
2022-10-19T22:51:02.578Z,4.60
2022-10-19T22:53:59.514Z,10.00
2022-10-19T22:56:56.642Z,8.40
2022-10-19T22:59:53.429Z,12.00
2022-10-19T23:02:50.583Z,8.60
2022-10-19T23:05:47.601Z,9.00
2022-10-19T23:08:44.557Z,12.00
2022-10-19T23:11:41.397Z,13.00
2022-10-19T23:14:38.475Z,10.20
2022-10-19T23:17:35.546Z,8.60
2022-10-19T23:20:33.209Z,10.60
2022-10-19T23:23:30.834Z,12.40
2022-10-19T23:26:28.476Z,8.60
2022-10-19T23:29:25.199Z,9.40
2022-10-19T23:32:21.997Z,11.60
2022-10-19T23:35:19.307Z,15.20
2022-10-19T23:38:16.402Z,14.40
2022-10-19T23:41:13.126Z,8.20
2022-10-19T23:44:10.707Z,10.00
2022-10-19T23:47:07.105Z,10.80
2022-10-19T23:50:04.726Z,12.00
2022-10-19T23:53:01.811Z,15.00
2022-10-19T23:56:03.969Z,11.60
2022-10-19T23:59:01.307Z,12.40
